Time;durP1;ratioP1;P1;durP2;ratioP2;P2;SDS_P1;SDS_P2;PMS_P1;PMS_P2;Temp;Humidity;BMP_temperature;BMP_pressure;BME280_temperature;BME280_humidity;BME280_pressure;Samples;Min_cycle;Max_cycle;Signal;HPM_P1;HPM_P2
2022/09/11 00:02:54;;;;;;;2.73;1.60;;;12.90;99.90;;;;;;20909304;28;20126;-76
2022/09/11 00:12:55;;;;;;;5.37;1.67;;;12.90;99.90;;;;;;20909110;28;20036;-78
2022/09/11 00:22:57;;;;;;;2.87;1.90;;;13.00;99.90;;;;;;20908816;28;20132;-78
2022/09/11 00:32:58;;;;;;;;;;;13.10;99.90;;;;;;20909513;28;20115;-77
2022/09/11 00:42:59;;;;;;;6.93;1.45;;;13.10;99.90;;;;;;20932600;28;19920;-77
2022/09/11 00:53:06;;;;;;;3.10;1.53;;;13.00;99.90;;;;;;20903983;28;20032;-77
2022/09/11 01:03:07;;;;;;;3.13;1.58;;;13.10;99.90;;;;;;20922268;28;20048;-77
2022/09/11 01:13:17;;;;;;;8.20;1.85;;;13.20;99.90;;;;;;20921469;28;20060;-76
2022/09/11 01:23:36;;;;;;;4.07;1.52;;;13.20;99.90;;;;;;20903904;28;20044;-77
2022/09/11 01:33:46;;;;;;;3.95;1.85;;;13.20;99.90;;;;;;20920239;28;20112;-78
2022/09/11 01:44:02;;;;;;;5.40;1.88;;;13.20;99.90;;;;;;20901603;28;20132;-78
2022/09/11 01:54:10;;;;;;;5.07;2.00;;;13.20;99.90;;;;;;20901828;28;20037;-78
2022/09/11 02:04:22;;;;;;;7.75;1.88;;;13.30;99.90;;;;;;20899287;28;20041;-78
2022/09/11 02:14:42;;;;;;;5.47;2.25;;;13.10;99.90;;;;;;20919245;28;20550;-77
2022/09/11 02:24:43;;;;;;;5.00;2.30;;;13.20;99.90;;;;;;20916719;28;20032;-78
2022/09/11 02:34:45;;;;;;;11.90;2.67;;;13.30;99.90;;;;;;20909805;28;20132;-77
2022/09/11 02:45:05;;;;;;;7.55;2.05;;;13.40;99.90;;;;;;20896802;28;20033;-77
2022/09/11 02:55:57;;;;;;;6.40;2.28;;;13.40;99.90;;;;;;20895021;28;20045;-78
2022/09/11 03:05:58;;;;;;;3.25;1.67;;;13.40;99.90;;;;;;20843619;28;20419;-77
2022/09/11 03:16:03;;;;;;;4.63;2.17;;;13.30;99.90;;;;;;20876445;28;20124;-77
2022/09/11 03:26:05;;;;;;;5.28;1.85;;;13.10;99.90;;;;;;20891701;28;20064;-77
2022/09/11 03:36:06;;;;;;;7.23;3.40;;;13.10;99.90;;;;;;20891346;28;20041;-78
2022/09/11 03:46:07;;;;;;;14.50;2.53;;;13.10;99.90;;;;;;20908450;28;20025;-77
2022/09/11 03:56:10;;;;;;;10.38;3.85;;;13.10;99.90;;;;;;20890842;28;20033;-78
2022/09/11 04:06:17;;;;;;;6.85;3.75;;;13.00;99.90;;;;;;20890452;28;20037;-77
2022/09/11 04:16:18;;;;;;;4.20;3.23;;;12.70;99.90;;;;;;20925410;28;20025;-77
2022/09/11 04:26:26;;;;;;;10.65;2.92;;;12.70;99.90;;;;;;20915671;28;20286;-77
2022/09/11 04:36:32;;;;;;;6.72;3.15;;;12.70;99.90;;;;;;20904399;28;20041;-77
2022/09/11 04:46:33;;;;;;;6.30;2.80;;;12.70;99.90;;;;;;20903757;28;20518;-76
2022/09/11 04:56:39;;;;;;;7.93;2.33;;;12.60;99.90;;;;;;20902323;28;20045;-77
2022/09/11 05:06:47;;;;;;;4.13;2.58;;;12.40;99.90;;;;;;20901845;28;20530;-77
2022/09/11 05:16:48;;;;;;;7.57;2.70;;;12.40;99.90;;;;;;20901148;28;20045;-77
2022/09/11 05:26:52;;;;;;;5.85;3.05;;;12.40;99.90;;;;;;20899785;28;20044;-78
2022/09/11 05:37:01;;;;;;;6.20;2.33;;;12.50;99.90;;;;;;20900241;28;20124;-77
2022/09/11 05:47:04;;;;;;;3.33;2.33;;;12.60;99.90;;;;;;20899515;28;20044;-77
2022/09/11 05:57:05;;;;;;;7.83;2.70;;;12.50;99.90;;;;;;20899515;28;20513;-77
2022/09/11 06:07:06;;;;;;;3.85;2.65;;;12.40;99.90;;;;;;20899037;28;20127;-77
2022/09/11 06:17:08;;;;;;;5.05;2.72;;;12.60;99.90;;;;;;20900305;28;20086;-77
2022/09/11 06:27:10;;;;;;;9.40;2.80;;;12.90;99.90;;;;;;20905617;28;20061;-77
2022/09/11 06:37:14;;;;;;;4.80;2.63;;;13.20;99.90;;;;;;20893133;28;20048;-75
2022/09/11 06:47:15;;;;;;;6.80;2.60;;;13.50;99.90;;;;;;20892859;28;20067;-76
2022/09/11 06:57:16;;;;;;;6.10;2.70;;;14.20;99.90;;;;;;20930231;28;20039;-76
2022/09/11 07:07:17;;;;;;;5.03;2.67;;;14.70;99.90;;;;;;20936466;28;20123;-75
2022/09/11 07:17:18;;;;;;;7.00;2.30;;;15.40;99.90;;;;;;20956854;28;20036;-76
2022/09/11 07:27:22;;;;;;;9.07;2.10;;;16.60;99.90;;;;;;20892873;28;20029;-76
2022/09/11 07:37:23;;;;;;;4.73;1.30;;;17.10;99.90;;;;;;20912878;28;20295;-75
2022/09/11 07:47:24;;;;;;;5.00;1.60;;;17.10;99.90;;;;;;20899260;28;20044;-75
2022/09/11 07:57:28;;;;;;;2.85;0.82;;;17.90;99.90;;;;;;20902506;28;20130;-73
2022/09/11 08:07:29;;;;;;;4.50;1.00;;;18.60;99.90;;;;;;20912957;28;20095;-74
2022/09/11 08:17:30;;;;;;;4.63;1.52;;;19.00;99.90;;;;;;20947059;28;20132;-74
2022/09/11 08:27:31;;;;;;;8.10;0.97;;;18.90;99.90;;;;;;20889704;28;20048;-74
2022/09/11 08:37:32;;;;;;;3.23;0.60;;;19.30;99.90;;;;;;20902317;28;20503;-74
2022/09/11 08:47:36;;;;;;;4.17;0.90;;;19.60;99.90;;;;;;20919315;28;20060;-74
2022/09/11 08:57:46;;;;;;;2.60;0.60;;;19.70;99.90;;;;;;20897491;28;20119;-73
2022/09/11 09:08:12;;;;;;;2.13;0.77;;;20.00;99.90;;;;;;20993526;22;20049;-80
2022/09/11 09:18:30;;;;;;;1.42;0.60;;;20.10;99.90;;;;;;20998918;28;20044;-81
2022/09/11 09:28:46;;;;;;;1.13;0.68;;;20.20;99.90;;;;;;21011194;28;20036;-80
2022/09/11 09:38:48;;;;;;;2.15;0.60;;;20.20;99.90;;;;;;20990853;28;20047;-80
2022/09/11 09:48:50;;;;;;;2.28;0.68;;;20.60;99.90;;;;;;20990594;28;20036;-81
2022/09/11 09:59:11;;;;;;;0.60;0.30;;;21.30;99.90;;;;;;20984250;28;20040;-78
2022/09/11 10:09:21;;;;;;;0.98;0.40;;;21.00;99.90;;;;;;21005580;28;20048;-78
2022/09/11 10:19:37;;;;;;;0.50;0.38;;;21.50;99.90;;;;;;21005881;28;20487;-80
2022/09/11 10:29:53;;;;;;;1.38;0.40;;;22.00;99.90;;;;;;20988124;28;20036;-80
2022/09/11 10:40:17;;;;;;;2.90;0.60;;;22.30;99.90;;;;;;20990054;28;20036;-79
2022/09/11 10:50:24;;;;;;;0.63;0.40;;;22.30;99.90;;;;;;20989391;28;20039;-82
2022/09/11 11:00:29;;;;;;;2.72;0.60;;;23.20;99.90;;;;;;20974238;28;20036;-81
2022/09/11 11:11:01;;;;;;;2.03;0.60;;;22.90;99.90;;;;;;20988605;28;20048;-79
2022/09/11 11:21:28;;;;;;;2.93;0.60;;;23.20;99.90;;;;;;20985810;28;20107;-81
2022/09/11 11:31:40;;;;;;;2.35;0.60;;;23.20;99.90;;;;;;21002903;28;20128;-79
2022/09/11 11:41:43;;;;;;;;;;;24.10;99.90;;;;;;21001771;28;20715;-81
2022/09/11 11:51:50;;;;;;;1.02;0.65;;;23.00;99.90;;;;;;20983533;28;19909;-79
2022/09/11 12:01:54;;;;;;;1.10;0.60;;;23.30;99.90;;;;;;21000289;28;20033;-81
2022/09/11 12:11:59;;;;;;;1.77;0.50;;;24.70;99.90;;;;;;21001020;28;20043;-80
2022/09/11 12:22:09;;;;;;;0.73;0.30;;;25.80;99.90;;;;;;21000658;28;20036;-82
2022/09/11 12:32:15;;;;;;;0.95;0.38;;;26.10;99.90;;;;;;20986762;28;20041;-81
2022/09/11 12:42:22;;;;;;;3.45;0.50;;;26.70;99.90;;;;;;20998371;28;20044;-80
2022/09/11 12:52:53;;;;;;;0.77;0.40;;;25.60;99.90;;;;;;20994585;28;20074;-82
2022/09/11 13:02:56;;;;;;;0.75;0.40;;;25.40;99.90;;;;;;21007068;28;20048;-79
2022/09/11 13:12:58;;;;;;;1.05;0.40;;;27.30;99.90;;;;;;20985125;28;20046;-80
2022/09/11 13:23:17;;;;;;;2.15;0.43;;;25.70;99.90;;;;;;20973397;28;20115;-81
2022/09/11 13:33:22;;;;;;;0.50;0.30;;;25.50;99.90;;;;;;21006447;28;20519;-81
2022/09/11 13:43:30;;;;;;;5.65;0.50;;;26.80;99.90;;;;;;21004856;28;20046;-81
2022/09/11 13:53:34;;;;;;;0.63;0.30;;;25.80;99.90;;;;;;20987713;28;20130;-80
2022/09/11 14:03:36;;;;;;;0.47;0.28;;;26.30;99.90;;;;;;20991386;28;20424;-80
2022/09/11 14:13:55;;;;;;;0.63;0.38;;;25.80;99.90;;;;;;20982128;28;20088;-81
2022/09/11 14:23:57;;;;;;;1.48;0.40;;;25.90;99.90;;;;;;20948658;28;20079;-79
2022/09/11 14:34:22;;;;;;;0.20;0.20;;;25.60;99.90;;;;;;20919136;28;20044;-80
2022/09/11 14:44:25;;;;;;;1.35;0.40;;;25.10;99.90;;;;;;20955383;28;20045;-81
2022/09/11 14:54:29;;;;;;;0.82;0.30;;;25.60;99.90;;;;;;21001404;28;20043;-80
2022/09/11 15:04:31;;;;;;;0.47;0.20;;;25.90;99.90;;;;;;21010149;22;20049;-81
2022/09/11 15:14:32;;;;;;;0.60;0.35;;;25.30;99.90;;;;;;20903449;28;20033;-80
2022/09/11 15:24:33;;;;;;;0.40;0.25;;;26.20;99.90;;;;;;20879862;28;20037;-80
2022/09/11 15:34:34;;;;;;;1.13;0.30;;;25.90;99.90;;;;;;20850463;28;20044;-81
2022/09/11 15:44:35;;;;;;;3.60;0.70;;;25.40;99.90;;;;;;20920961;28;20037;-81
2022/09/11 15:54:36;;;;;;;2.10;0.52;;;25.20;99.90;;;;;;20933834;28;20215;-80
2022/09/11 16:04:37;;;;;;;;;;;24.70;99.90;;;;;;20942327;28;20044;-80
2022/09/11 16:14:37;;;;;;;0.67;0.30;;;24.30;99.90;;;;;;20923650;28;19915;-80
2022/09/11 16:24:38;;;;;;;;;;;23.60;99.90;;;;;;20940101;28;20087;-80
2022/09/11 16:34:40;;;;;;;0.67;0.50;;;23.30;99.90;;;;;;20920225;28;20024;-80
2022/09/11 16:44:41;;;;;;;1.23;0.40;;;23.00;99.90;;;;;;20927251;28;20056;-79
2022/09/11 16:54:43;;;;;;;1.25;0.45;;;22.50;99.90;;;;;;20866112;28;20042;-80
2022/09/11 17:04:43;;;;;;;2.60;0.50;;;21.90;99.90;;;;;;20839522;28;20079;-80
2022/09/11 17:14:44;;;;;;;0.43;0.43;;;21.50;99.90;;;;;;20874043;28;20043;-80
2022/09/11 17:24:45;;;;;;;0.33;0.33;;;21.00;99.90;;;;;;20938891;28;20037;-80
2022/09/11 17:34:46;;;;;;;0.87;0.47;;;20.90;99.90;;;;;;20939441;28;20492;-80
2022/09/11 17:44:47;;;;;;;1.13;0.73;;;20.30;99.90;;;;;;20920065;28;20411;-79
2022/09/11 17:54:48;;;;;;;0.43;0.43;;;19.80;99.90;;;;;;20937500;28;20116;-79
2022/09/11 18:04:49;;;;;;;3.57;0.90;;;19.20;99.90;;;;;;20945105;28;20064;-80
2022/09/11 18:14:53;;;;;;;2.63;0.70;;;18.80;99.90;;;;;;20900789;28;20044;-79
2022/09/11 18:24:55;;;;;;;4.22;1.02;;;18.30;99.90;;;;;;20911646;28;20063;-81
2022/09/11 18:34:56;;;;;;;6.25;0.93;;;17.90;99.90;;;;;;20935709;28;20033;-81
2022/09/11 18:44:57;;;;;;;0.98;0.60;;;17.50;99.90;;;;;;20917136;28;20037;-80
2022/09/11 18:54:58;;;;;;;1.63;0.80;;;17.40;99.90;;;;;;20930965;28;20115;-81
2022/09/11 19:04:59;;;;;;;3.07;0.90;;;17.10;99.90;;;;;;20930880;28;20075;-82
2022/09/11 19:15:00;;;;;;;2.10;1.00;;;16.80;99.90;;;;;;20914636;28;20040;-81
2022/09/11 19:25:01;;;;;;;3.20;0.77;;;16.60;99.90;;;;;;20920722;28;20045;-80
2022/09/11 19:35:03;;;;;;;3.20;1.20;;;16.50;99.90;;;;;;20910141;28;20518;-79
2022/09/11 19:45:04;;;;;;;1.95;1.15;;;16.40;99.90;;;;;;20891730;28;20051;-79
2022/09/11 19:55:05;;;;;;;1.65;0.80;;;16.10;99.90;;;;;;20929348;28;20051;-80
2022/09/11 20:05:07;;;;;;;1.77;1.00;;;16.00;99.90;;;;;;20952213;28;20104;-83
2022/09/11 20:15:08;;;;;;;4.43;1.30;;;15.80;99.90;;;;;;20933925;28;20056;-79
2022/09/11 20:25:09;;;;;;;1.70;1.08;;;15.60;99.90;;;;;;20927678;28;20495;-79
2022/09/11 20:35:10;;;;;;;1.95;1.30;;;15.50;99.90;;;;;;20915320;28;20040;-78
2022/09/11 20:45:12;;;;;;;1.67;1.30;;;15.50;99.90;;;;;;20911193;28;20021;-79
2022/09/11 20:55:12;;;;;;;1.35;1.15;;;15.40;99.90;;;;;;20928636;28;20056;-78
2022/09/11 21:05:14;;;;;;;6.30;1.00;;;15.30;99.90;;;;;;20941126;28;20476;-78
2022/09/11 21:15:14;;;;;;;6.13;1.83;;;15.30;99.90;;;;;;20944561;28;20377;-78
2022/09/11 21:25:15;;;;;;;2.73;1.10;;;15.30;99.90;;;;;;20919535;28;20044;-80
2022/09/11 21:35:16;;;;;;;2.53;1.20;;;15.20;99.90;;;;;;20920025;28;20036;-80
2022/09/11 21:45:17;;;;;;;1.13;1.00;;;15.20;99.90;;;;;;20939170;28;20033;-81
2022/09/11 21:55:18;;;;;;;3.77;1.20;;;15.00;99.90;;;;;;20934513;28;20399;-79
2022/09/11 22:05:19;;;;;;;2.90;1.10;;;14.80;99.90;;;;;;20911005;28;20033;-79
2022/09/11 22:15:20;;;;;;;1.57;1.03;;;14.80;99.90;;;;;;20972640;28;20036;-78
2022/09/11 22:25:20;;;;;;;3.23;1.43;;;14.60;99.90;;;;;;20971860;28;20045;-79
2022/09/11 22:35:22;;;;;;;1.80;1.10;;;14.40;99.90;;;;;;20972712;28;20051;-78
2022/09/11 22:45:23;;;;;;;1.35;1.05;;;14.40;99.90;;;;;;20957609;28;20124;-79
2022/09/11 22:55:23;;;;;;;5.13;1.40;;;14.40;99.90;;;;;;20959559;28;20041;-79
2022/09/11 23:15:43;;;;;;;2.83;1.20;;;14.30;99.90;;;;;;20939934;28;20044;-79
2022/09/11 23:25:45;;;;;;;1.90;1.43;;;14.10;99.90;;;;;;20920884;28;20119;-79
2022/09/11 23:35:46;;;;;;;1.88;1.42;;;13.90;99.90;;;;;;20927079;28;20036;-79
2022/09/11 23:45:47;;;;;;;2.47;1.33;;;13.90;99.90;;;;;;20953708;28;20049;-79
2022/09/11 23:55:51;;;;;;;2.47;1.10;;;13.80;99.90;;;;;;20931437;28;20037;-79
